createdAt,value
2023-04-03T00:01:01.582Z,4.30
2023-04-03T00:03:28.496Z,3.97
2023-04-03T00:05:55.711Z,5.43
2023-04-03T00:08:22.817Z,4.27
2023-04-03T00:10:50.259Z,2.67
2023-04-03T00:13:17.354Z,5.70
2023-04-03T00:15:44.775Z,7.43
2023-04-03T00:18:11.895Z,3.07
2023-04-03T00:20:38.988Z,5.07
2023-04-03T00:23:06.348Z,4.07
2023-04-03T00:25:33.309Z,3.37
2023-04-03T00:28:00.324Z,4.37
2023-04-03T00:30:27.221Z,5.83
2023-04-03T00:32:54.262Z,3.33
2023-04-03T00:35:22.248Z,5.47
2023-04-03T00:37:49.471Z,2.70
2023-04-03T00:40:17.271Z,5.57
2023-04-03T00:42:45.715Z,4.77
2023-04-03T00:45:12.439Z,4.77
2023-04-03T00:47:41.909Z,4.80
2023-04-03T00:50:09.269Z,3.23
2023-04-03T00:52:36.178Z,3.97
2023-04-03T00:55:06.802Z,4.57
2023-04-03T00:57:34.375Z,5.30
2023-04-03T01:00:07.061Z,4.30
2023-04-03T01:02:33.882Z,3.47
2023-04-03T01:05:00.965Z,3.07
2023-04-03T01:07:31.332Z,5.60
2023-04-03T01:10:01.145Z,4.70
2023-04-03T01:12:31.523Z,4.53
2023-04-03T01:15:01.460Z,6.57
2023-04-03T01:17:41.178Z,3.93
2023-04-03T01:20:29.340Z,5.87
2023-04-03T01:23:05.059Z,3.27
2023-04-03T01:25:31.786Z,6.03
2023-04-03T01:27:58.493Z,5.07
2023-04-03T01:30:31.934Z,4.60
2023-04-03T01:32:58.721Z,7.30
2023-04-03T01:35:28.530Z,4.70
2023-04-03T01:37:55.422Z,6.83
2023-04-03T01:40:22.274Z,4.30
2023-04-03T01:42:49.000Z,4.67
2023-04-03T01:45:15.910Z,4.90
2023-04-03T01:47:42.772Z,5.87
2023-04-03T01:50:10.192Z,4.27
2023-04-03T01:52:36.899Z,4.20
2023-04-03T01:55:03.784Z,5.37
2023-04-03T01:57:30.804Z,6.43
2023-04-03T01:59:57.560Z,6.27
2023-04-03T02:02:27.050Z,3.87
2023-04-03T02:04:53.798Z,3.83
2023-04-03T02:07:20.711Z,4.00
2023-04-03T02:09:47.453Z,7.43
2023-04-03T02:12:14.278Z,5.23
2023-04-03T02:14:41.219Z,4.80
2023-04-03T02:17:09.682Z,4.23
2023-04-03T02:19:36.817Z,6.83
2023-04-03T02:22:05.025Z,8.10
2023-04-03T02:24:32.314Z,8.10
2023-04-03T02:26:59.327Z,6.33
2023-04-03T02:29:26.161Z,5.70
2023-04-03T02:31:53.015Z,5.40
2023-04-03T02:34:19.847Z,6.40
2023-04-03T02:36:46.848Z,5.80
2023-04-03T02:39:13.604Z,6.50
2023-04-03T02:41:43.557Z,5.50
2023-04-03T02:44:11.759Z,6.57
2023-04-03T02:46:38.638Z,12.63
2023-04-03T02:49:05.842Z,8.30
2023-04-03T02:51:32.901Z,5.33
2023-04-03T02:53:59.664Z,4.87
2023-04-03T02:56:27.802Z,7.57
2023-04-03T02:58:54.672Z,4.97
2023-04-03T03:01:21.940Z,6.97
2023-04-03T03:03:48.730Z,8.73
2023-04-03T03:06:17.587Z,5.53
2023-04-03T03:08:44.905Z,8.97
2023-04-03T03:11:12.191Z,9.53
2023-04-03T03:13:39.198Z,5.40
2023-04-03T03:16:07.037Z,7.77
2023-04-03T03:18:34.902Z,7.93
2023-04-03T03:21:03.363Z,6.83
2023-04-03T03:23:33.142Z,5.17
2023-04-03T03:26:06.386Z,6.43
2023-04-03T03:28:33.851Z,4.33
2023-04-03T03:31:01.733Z,5.83
2023-04-03T03:33:28.762Z,7.23
2023-04-03T03:35:56.359Z,8.93
2023-04-03T03:38:23.653Z,6.80
2023-04-03T03:40:52.244Z,6.67
2023-04-03T03:43:19.606Z,9.27
2023-04-03T03:45:50.456Z,10.90
2023-04-03T03:48:17.188Z,7.93
2023-04-03T03:50:43.989Z,10.10
2023-04-03T03:53:10.688Z,9.20
2023-04-03T03:55:37.611Z,8.73
2023-04-03T03:58:04.764Z,6.10
2023-04-03T04:00:31.552Z,8.40
2023-04-03T04:02:59.520Z,8.87
2023-04-03T04:05:26.409Z,11.27
2023-04-03T04:07:53.126Z,6.23
2023-04-03T04:10:19.857Z,9.83
2023-04-03T04:12:46.818Z,7.70
2023-04-03T04:15:13.562Z,6.27
2023-04-03T04:17:40.495Z,7.77
2023-04-03T04:20:07.680Z,7.67
2023-04-03T04:22:34.424Z,11.03
2023-04-03T04:25:01.089Z,7.40
2023-04-03T04:27:27.813Z,10.13
2023-04-03T04:29:54.586Z,6.30
2023-04-03T04:32:21.441Z,10.93
2023-04-03T04:34:48.243Z,8.77
2023-04-03T04:37:14.970Z,7.50
2023-04-03T04:39:41.786Z,9.63
2023-04-03T04:42:15.025Z,8.57
2023-04-03T04:44:43.613Z,6.63
2023-04-03T04:47:10.374Z,15.27
2023-04-03T04:49:37.123Z,12.30
2023-04-03T04:52:03.907Z,8.33
2023-04-03T04:54:30.790Z,8.83
2023-04-03T04:56:57.597Z,11.17
2023-04-03T04:59:24.428Z,10.33
2023-04-03T05:01:51.244Z,10.30
2023-04-03T05:04:18.406Z,8.47
2023-04-03T05:06:45.290Z,12.60
2023-04-03T05:09:12.246Z,8.97
2023-04-03T05:11:39.141Z,14.07
2023-04-03T05:14:07.594Z,13.13
2023-04-03T05:16:34.891Z,16.53
2023-04-03T05:19:01.801Z,11.80
2023-04-03T05:21:32.996Z,13.30
2023-04-03T05:24:04.031Z,11.93
2023-04-03T05:26:32.246Z,14.30
2023-04-03T05:28:59.051Z,12.30
2023-04-03T05:31:25.900Z,13.37
2023-04-03T05:33:52.934Z,9.33
2023-04-03T05:36:20.122Z,10.73
2023-04-03T05:38:47.783Z,10.67
2023-04-03T05:41:15.831Z,9.20
2023-04-03T05:43:42.809Z,12.87
2023-04-03T05:46:21.613Z,13.13
2023-04-03T05:48:48.847Z,11.67
2023-04-03T05:51:18.652Z,9.80
2023-04-03T05:53:47.616Z,12.67
2023-04-03T05:56:14.686Z,12.83
2023-04-03T05:58:41.451Z,10.97
2023-04-03T06:01:08.852Z,10.03
2023-04-03T06:03:37.755Z,8.23
2023-04-03T06:06:05.982Z,11.00
2023-04-03T06:08:32.923Z,10.17
2023-04-03T06:10:59.755Z,11.27
2023-04-03T06:13:26.517Z,8.47
2023-04-03T06:15:53.346Z,7.77
2023-04-03T06:18:20.474Z,11.90
2023-04-03T06:20:47.426Z,13.37
2023-04-03T06:23:15.426Z,13.90
2023-04-03T06:25:43.054Z,9.03
2023-04-03T06:28:11.131Z,7.47
2023-04-03T06:30:38.722Z,8.13
2023-04-03T06:33:05.889Z,7.20
2023-04-03T06:35:32.742Z,5.73
2023-04-03T06:37:59.572Z,8.17
2023-04-03T06:40:27.594Z,9.60
2023-04-03T06:42:54.435Z,9.80
2023-04-03T06:45:22.655Z,11.07
2023-04-03T06:47:49.462Z,8.77
2023-04-03T06:50:16.295Z,10.30
2023-04-03T06:52:43.570Z,8.43
2023-04-03T06:55:10.756Z,14.40
2023-04-03T06:57:37.875Z,10.73
2023-04-03T07:00:06.975Z,9.53
2023-04-03T07:02:34.177Z,7.87
2023-04-03T07:05:01.046Z,7.97
2023-04-03T07:07:27.871Z,5.67
2023-04-03T07:09:54.693Z,8.53
2023-04-03T07:12:21.750Z,3.33
2023-04-03T07:14:48.565Z,4.07
2023-04-03T07:17:15.476Z,9.23
2023-04-03T07:19:42.221Z,5.87
2023-04-03T07:22:09.247Z,6.13
2023-04-03T07:24:36.088Z,5.53
2023-04-03T07:27:03.648Z,5.37
2023-04-03T07:29:31.116Z,6.03
2023-04-03T07:32:01.000Z,4.30
2023-04-03T07:34:27.946Z,4.60
2023-04-03T07:36:54.804Z,3.20
2023-04-03T07:39:21.658Z,4.10
2023-04-03T07:41:48.480Z,4.30
2023-04-03T07:44:15.510Z,6.15
2023-04-03T07:46:43.372Z,3.20
2023-04-03T07:49:10.324Z,3.90
2023-04-03T07:51:37.312Z,3.38
2023-04-03T07:54:05.013Z,5.53
2023-04-03T07:56:32.810Z,7.20
2023-04-03T07:58:59.700Z,3.58
2023-04-03T08:01:26.460Z,4.70
2023-04-03T08:03:53.256Z,3.25
2023-04-03T08:06:29.432Z,2.80
2023-04-03T08:09:05.136Z,3.13
2023-04-03T08:11:32.580Z,4.03
2023-04-03T08:13:59.336Z,3.77
2023-04-03T08:16:29.223Z,3.13
2023-04-03T08:18:56.529Z,5.07
2023-04-03T08:21:23.350Z,3.47
2023-04-03T08:23:51.783Z,2.50
2023-04-03T08:26:21.773Z,2.83
2023-04-03T08:28:49.570Z,3.33
2023-04-03T08:31:20.862Z,3.23
2023-04-03T08:33:48.241Z,3.43
2023-04-03T08:36:26.290Z,3.57
2023-04-03T08:38:54.301Z,2.37
2023-04-03T08:41:31.858Z,1.93
2023-04-03T08:44:17.339Z,2.33
2023-04-03T08:47:05.872Z,3.03
2023-04-03T08:49:54.799Z,3.17
2023-04-03T08:52:36.847Z,2.87
2023-04-03T08:55:35.516Z,3.87
2023-04-03T08:58:17.809Z,2.63
2023-04-03T09:01:26.262Z,2.17
2023-04-03T09:03:53.249Z,2.77
2023-04-03T09:06:22.761Z,2.53
2023-04-03T09:08:59.817Z,4.97
2023-04-03T09:11:49.179Z,3.43
2023-04-03T09:14:38.540Z,3.70
2023-04-03T09:17:30.723Z,1.03
2023-04-03T09:20:20.842Z,2.70
2023-04-03T09:22:52.191Z,3.67
2023-04-03T09:25:32.077Z,7.10
2023-04-03T09:28:00.526Z,1.77
2023-04-03T09:30:28.518Z,1.50
2023-04-03T09:32:57.991Z,1.77
2023-04-03T09:35:47.361Z,4.43
2023-04-03T09:38:19.521Z,1.50
2023-04-03T09:40:48.719Z,2.20
2023-04-03T09:43:18.704Z,1.93
2023-04-03T09:45:47.229Z,0.80
2023-04-03T09:48:16.265Z,1.33
2023-04-03T09:50:56.389Z,2.63
2023-04-03T09:53:36.898Z,2.13
2023-04-03T09:56:19.060Z,1.93
2023-04-03T09:58:51.066Z,2.27
2023-04-03T10:01:33.621Z,2.23
2023-04-03T10:04:06.205Z,0.80
2023-04-03T10:06:41.603Z,1.73
2023-04-03T10:09:27.887Z,3.23
2023-04-03T10:12:02.182Z,2.23
2023-04-03T10:14:31.009Z,5.97
2023-04-03T10:17:10.347Z,1.73
2023-04-03T10:19:46.197Z,2.67
2023-04-03T10:22:40.582Z,5.10
2023-04-03T10:25:21.722Z,1.87
2023-04-03T10:28:06.505Z,1.97
2023-04-03T10:30:51.292Z,1.83
2023-04-03T10:33:23.447Z,2.33
2023-04-03T10:36:23.180Z,1.63
2023-04-03T10:39:11.964Z,4.53
2023-04-03T10:41:55.928Z,2.97
2023-04-03T10:44:59.490Z,4.13
2023-04-03T10:47:49.446Z,2.80
2023-04-03T10:50:28.316Z,3.10
2023-04-03T10:52:58.855Z,1.63
2023-04-03T10:55:44.487Z,3.50
2023-04-03T10:58:22.903Z,2.47
2023-04-03T11:00:53.797Z,3.60
2023-04-03T11:03:42.225Z,3.00
2023-04-03T11:06:12.323Z,2.20
2023-04-03T11:08:57.986Z,2.37
2023-04-03T11:11:36.257Z,2.87
2023-04-03T11:14:25.786Z,1.17
2023-04-03T11:17:18.909Z,4.93
2023-04-03T11:20:04.526Z,1.17
2023-04-03T11:22:39.540Z,4.17
2023-04-03T11:25:12.709Z,3.63
2023-04-03T11:27:48.294Z,2.80
2023-04-03T11:30:24.563Z,2.13
2023-04-03T11:33:32.726Z,3.00
2023-04-03T11:36:24.942Z,4.17
2023-04-03T11:38:57.527Z,2.33
2023-04-03T11:41:31.221Z,2.03
2023-04-03T11:44:31.337Z,11.67
2023-04-03T11:47:00.543Z,6.47
2023-04-03T11:50:02.786Z,1.90
2023-04-03T11:52:44.325Z,4.67
2023-04-03T11:55:21.226Z,2.70
2023-04-03T11:57:47.998Z,3.07
2023-04-03T12:00:52.348Z,2.90
2023-04-03T12:03:28.138Z,2.40
2023-04-03T12:06:18.177Z,2.03
2023-04-03T12:08:51.581Z,2.53
2023-04-03T12:11:25.071Z,2.00
2023-04-03T12:13:58.761Z,3.77
2023-04-03T12:16:28.334Z,2.97
2023-04-03T12:19:14.910Z,2.67
2023-04-03T12:21:47.788Z,4.60
2023-04-03T12:24:17.570Z,6.53
2023-04-03T12:27:06.048Z,2.33
2023-04-03T12:29:37.472Z,3.43
2023-04-03T12:32:23.678Z,3.30
2023-04-03T12:35:28.546Z,1.90
2023-04-03T12:38:34.549Z,2.00
2023-04-03T12:41:40.749Z,4.67
2023-04-03T12:44:13.437Z,3.33
2023-04-03T12:47:01.856Z,5.67
2023-04-03T12:49:44.056Z,2.70
2023-04-03T12:52:42.486Z,3.47
2023-04-03T12:55:19.553Z,2.23
2023-04-03T12:57:47.130Z,2.07
2023-04-03T13:00:34.208Z,3.93
2023-04-03T13:03:04.684Z,3.10
2023-04-03T13:05:36.767Z,2.97
2023-04-03T13:08:13.686Z,3.63
2023-04-03T13:10:58.715Z,5.43
2023-04-03T13:13:27.301Z,3.03
2023-04-03T13:15:55.937Z,5.23
2023-04-03T13:18:37.809Z,3.33
2023-04-03T13:21:14.588Z,2.27
2023-04-03T13:23:46.306Z,2.53
2023-04-03T13:26:13.637Z,2.63
2023-04-03T13:28:41.772Z,3.30
2023-04-03T13:31:17.991Z,3.67
2023-04-03T13:34:14.349Z,3.23
2023-04-03T13:36:46.120Z,2.90
2023-04-03T13:39:15.713Z,3.73
2023-04-03T13:41:45.402Z,2.77
2023-04-03T13:44:40.578Z,11.20
2023-04-03T13:47:19.076Z,12.50
2023-04-03T13:49:59.957Z,4.47
2023-04-03T13:52:40.922Z,4.23
2023-04-03T13:55:32.785Z,4.43
2023-04-03T13:58:01.060Z,2.60
2023-04-03T14:00:40.294Z,3.70
2023-04-03T14:03:24.946Z,3.87
2023-04-03T14:05:51.996Z,4.97
2023-04-03T14:08:24.324Z,3.00
2023-04-03T14:10:59.567Z,2.93
2023-04-03T14:13:31.950Z,5.47
2023-04-03T14:16:05.826Z,4.30
2023-04-03T14:18:40.111Z,2.73
2023-04-03T14:21:06.957Z,4.50
2023-04-03T14:23:34.054Z,3.23
2023-04-03T14:26:01.470Z,3.90
2023-04-03T14:28:28.300Z,3.47
2023-04-03T14:30:55.269Z,2.70
2023-04-03T14:33:23.210Z,3.47
2023-04-03T14:35:51.137Z,2.80
2023-04-03T14:38:29.476Z,3.43
2023-04-03T14:41:00.947Z,4.43
2023-04-03T14:43:33.750Z,2.73
2023-04-03T14:46:00.797Z,3.60
2023-04-03T14:48:29.550Z,6.07
2023-04-03T14:51:05.752Z,3.67
2023-04-03T14:53:38.959Z,3.30
2023-04-03T14:56:13.514Z,3.60
2023-04-03T14:58:40.364Z,3.17
2023-04-03T15:01:09.780Z,4.57
2023-04-03T15:03:39.200Z,3.23
2023-04-03T15:06:06.560Z,5.23
2023-04-03T15:08:33.327Z,2.97
2023-04-03T15:11:00.303Z,3.57
2023-04-03T15:13:27.241Z,3.43
2023-04-03T15:15:54.292Z,3.90
2023-04-03T15:18:29.112Z,3.50
2023-04-03T15:20:57.776Z,4.37
2023-04-03T15:23:26.936Z,4.50
2023-04-03T15:25:54.598Z,2.77
2023-04-03T15:28:27.105Z,6.93
2023-04-03T15:30:54.101Z,3.97
2023-04-03T15:33:22.754Z,3.93
2023-04-03T15:35:49.584Z,2.23
2023-04-03T15:38:16.278Z,2.37
2023-04-03T15:40:44.577Z,5.77
2023-04-03T15:43:15.191Z,2.70
2023-04-03T15:45:43.682Z,3.23
2023-04-03T15:48:13.406Z,3.33
2023-04-03T15:50:40.932Z,7.87
2023-04-03T15:53:08.076Z,2.43
2023-04-03T15:55:37.110Z,4.70
2023-04-03T15:58:05.342Z,7.43
2023-04-03T16:00:33.654Z,4.00
2023-04-03T16:03:11.047Z,3.57
2023-04-03T16:05:39.734Z,4.57
2023-04-03T16:08:08.635Z,2.33
2023-04-03T16:10:41.459Z,2.63
2023-04-03T16:13:08.254Z,3.80
2023-04-03T16:15:36.546Z,4.60
2023-04-03T16:18:04.608Z,2.83
2023-04-03T16:20:33.061Z,3.97
2023-04-03T16:23:01.953Z,4.83
2023-04-03T16:25:28.886Z,2.47
2023-04-03T16:27:58.314Z,3.47
2023-04-03T16:30:25.213Z,3.63
2023-04-03T16:32:56.571Z,5.10
2023-04-03T16:35:23.740Z,4.20
2023-04-03T16:37:50.454Z,3.67
2023-04-03T16:40:17.566Z,7.27
2023-04-03T16:42:45.705Z,3.63
2023-04-03T16:45:12.480Z,3.57
2023-04-03T16:47:41.675Z,6.10
2023-04-03T16:50:08.904Z,3.73
2023-04-03T16:52:36.013Z,2.70
2023-04-03T16:55:02.850Z,4.60
2023-04-03T16:57:29.637Z,4.03
2023-04-03T16:59:59.476Z,2.70
2023-04-03T17:02:28.761Z,2.07
2023-04-03T17:04:56.028Z,3.80
2023-04-03T17:07:24.583Z,2.90
2023-04-03T17:09:52.549Z,2.43
2023-04-03T17:12:19.952Z,5.63
2023-04-03T17:14:47.862Z,4.37
2023-04-03T17:17:26.994Z,4.50
2023-04-03T17:19:55.749Z,3.27
2023-04-03T17:22:22.796Z,3.00
2023-04-03T17:24:49.748Z,3.93
2023-04-03T17:27:16.604Z,2.10
2023-04-03T17:29:43.485Z,2.97
2023-04-03T17:32:13.198Z,4.37
2023-04-03T17:34:40.171Z,3.67
2023-04-03T17:37:07.118Z,3.60
2023-04-03T17:39:33.914Z,3.30
2023-04-03T17:42:01.462Z,5.60
2023-04-03T17:44:28.328Z,4.93
2023-04-03T17:46:55.513Z,2.87
2023-04-03T17:49:22.517Z,2.97
2023-04-03T17:51:49.500Z,2.80
2023-04-03T17:54:16.992Z,2.70
2023-04-03T17:56:48.167Z,6.10
2023-04-03T17:59:16.640Z,3.70
2023-04-03T18:01:49.041Z,3.67
2023-04-03T18:04:18.772Z,4.00
2023-04-03T18:06:53.666Z,4.53
2023-04-03T18:09:25.302Z,4.50
2023-04-03T18:11:53.206Z,4.43
2023-04-03T18:14:23.826Z,6.50
2023-04-03T18:16:50.961Z,3.30
2023-04-03T18:19:23.526Z,3.87
2023-04-03T18:21:53.530Z,4.37
2023-04-03T18:24:21.847Z,4.73
2023-04-03T18:26:53.997Z,3.27
2023-04-03T18:29:21.457Z,4.73
2023-04-03T18:31:55.108Z,4.33
2023-04-03T18:34:24.231Z,4.70
2023-04-03T18:36:52.457Z,4.03
2023-04-03T18:39:19.506Z,4.80
2023-04-03T18:41:47.653Z,6.03
2023-04-03T18:44:18.344Z,4.67
2023-04-03T18:46:46.049Z,3.27
2023-04-03T18:49:15.011Z,4.07
2023-04-03T18:51:42.226Z,3.10
2023-04-03T18:54:10.023Z,4.43
2023-04-03T18:56:37.594Z,5.10
2023-04-03T18:59:05.323Z,6.27
2023-04-03T19:01:33.998Z,5.00
2023-04-03T19:04:01.178Z,5.27
2023-04-03T19:06:28.168Z,4.63
2023-04-03T19:08:54.971Z,3.77
2023-04-03T19:11:23.023Z,5.97
2023-04-03T19:16:20.001Z,4.57
2023-04-03T19:18:47.003Z,4.60
2023-04-03T19:21:14.866Z,8.60
2023-04-03T19:23:44.637Z,5.03
2023-04-03T19:26:13.472Z,5.43
2023-04-03T19:28:41.761Z,5.13
2023-04-03T19:31:17.231Z,3.97
2023-04-03T19:33:44.900Z,5.23
2023-04-03T19:36:12.389Z,3.93
2023-04-03T19:38:40.116Z,5.73
2023-04-03T19:41:17.368Z,3.90
2023-04-03T19:43:44.502Z,6.13
2023-04-03T19:46:11.708Z,4.40
2023-04-03T19:48:38.756Z,4.50
2023-04-03T19:51:06.130Z,4.10
2023-04-03T19:53:32.969Z,4.47
2023-04-03T19:56:00.884Z,5.43
2023-04-03T19:58:30.278Z,4.10
2023-04-03T20:00:58.255Z,8.10
2023-04-03T20:03:26.107Z,5.27
2023-04-03T20:05:54.056Z,6.10
2023-04-03T20:08:21.018Z,4.07
2023-04-03T20:10:47.900Z,5.37
2023-04-03T20:13:14.727Z,6.80
2023-04-03T20:15:42.869Z,6.00
2023-04-03T20:18:12.609Z,3.87
2023-04-03T20:20:42.161Z,6.17
2023-04-03T20:23:11.106Z,4.33
2023-04-03T20:25:57.670Z,4.80
2023-04-03T20:28:28.945Z,5.30
2023-04-03T20:30:56.769Z,5.40
2023-04-03T20:33:23.987Z,6.23
2023-04-03T20:35:50.702Z,4.53
2023-04-03T20:38:17.895Z,5.07
2023-04-03T20:40:45.040Z,4.53
2023-04-03T20:43:12.301Z,3.87
2023-04-03T20:45:41.589Z,7.37
2023-04-03T20:48:08.972Z,6.97
2023-04-03T20:50:36.051Z,6.93
2023-04-03T20:53:03.341Z,7.20
2023-04-03T20:55:30.312Z,8.80
2023-04-03T20:58:01.279Z,9.80
2023-04-03T21:00:31.738Z,9.70
2023-04-03T21:03:01.493Z,9.50
2023-04-03T21:05:30.381Z,13.63
2023-04-03T21:08:35.966Z,5.43
2023-04-03T21:11:40.528Z,7.73
2023-04-03T21:14:46.849Z,8.77
2023-04-03T21:17:13.752Z,7.47
2023-04-03T21:19:46.223Z,8.23
2023-04-03T21:22:13.976Z,9.07
2023-04-03T21:24:41.471Z,6.03
2023-04-03T21:27:08.500Z,6.93
2023-04-03T21:29:35.300Z,7.17
2023-04-03T21:32:02.206Z,7.60
2023-04-03T21:34:30.569Z,7.83
2023-04-03T21:37:01.632Z,7.13
2023-04-03T21:39:28.997Z,6.27
2023-04-03T21:41:55.951Z,7.13
2023-04-03T21:44:23.407Z,6.33
2023-04-03T21:46:54.530Z,7.13
2023-04-03T21:49:22.756Z,8.07
2023-04-03T21:51:51.533Z,7.03
2023-04-03T21:54:19.164Z,7.17
2023-04-03T21:56:48.042Z,8.87
2023-04-03T21:59:15.351Z,12.40
2023-04-03T22:01:42.424Z,8.33
2023-04-03T22:04:09.186Z,7.37
2023-04-03T22:06:37.631Z,7.60
2023-04-03T22:09:04.741Z,10.17
2023-04-03T22:11:31.479Z,7.40
2023-04-03T22:13:58.449Z,10.07
2023-04-03T22:16:26.590Z,7.73
2023-04-03T22:18:53.682Z,5.90
2023-04-03T22:21:22.213Z,8.43
2023-04-03T22:23:49.315Z,10.57
2023-04-03T22:26:16.796Z,10.00
2023-04-03T22:28:45.830Z,8.23
2023-04-03T22:31:14.316Z,5.37
2023-04-03T22:33:42.512Z,8.10
2023-04-03T22:36:11.297Z,8.13
2023-04-03T22:38:39.373Z,9.77
2023-04-03T22:41:07.996Z,11.33
2023-04-03T22:43:36.474Z,8.37
2023-04-03T22:46:05.534Z,9.70
2023-04-03T22:48:33.425Z,11.40
2023-04-03T22:51:01.162Z,10.47
2023-04-03T22:53:28.768Z,6.60
2023-04-03T22:55:56.600Z,9.07
2023-04-03T22:58:26.389Z,7.30
2023-04-03T23:00:55.125Z,8.30
2023-04-03T23:03:25.503Z,11.10
2023-04-03T23:05:53.406Z,8.43
2023-04-03T23:08:20.234Z,8.93
2023-04-03T23:10:47.107Z,8.73
2023-04-03T23:13:13.912Z,10.93
2023-04-03T23:15:40.894Z,8.63
2023-04-03T23:18:07.920Z,9.40
2023-04-03T23:20:38.159Z,9.27
2023-04-03T23:23:05.812Z,6.50
2023-04-03T23:25:32.557Z,7.57
2023-04-03T23:27:59.264Z,7.87
2023-04-03T23:30:26.348Z,9.63
2023-04-03T23:32:53.133Z,8.93
2023-04-03T23:35:19.926Z,8.37
2023-04-03T23:37:46.610Z,6.50
2023-04-03T23:40:13.519Z,8.70
2023-04-03T23:42:40.215Z,9.40
2023-04-03T23:45:10.745Z,6.97
2023-04-03T23:47:37.726Z,10.10
2023-04-03T23:50:07.997Z,13.10
2023-04-03T23:52:34.661Z,8.20
2023-04-03T23:55:02.039Z,8.90
2023-04-03T23:57:28.779Z,8.30
2023-04-03T23:59:55.451Z,7.30
